sensor_id;sensor_type;location;lat;lon;timestamp;pressure;altitude;pressure_sealevel;temperature;humidity
69027;BME280;56080;47.594;19.116;2023-07-31T00:00:29;99904;;;19.35;100.00
69027;BME280;56080;47.594;19.116;2023-07-31T00:20:32;99904;;;19.29;99.75
69027;BME280;56080;47.594;19.116;2023-07-31T00:30:34;99915;;;19.19;100.00
69027;BME280;56080;47.594;19.116;2023-07-31T00:40:36;99922;;;19.14;100.00
69027;BME280;56080;47.594;19.116;2023-07-31T00:50:37;99928;;;19.19;100.00
69027;BME280;56080;47.594;19.116;2023-07-31T01:00:38;99923;;;19.09;100.00
69027;BME280;56080;47.594;19.116;2023-07-31T01:10:46;99918;;;19.04;100.00
69027;BME280;56080;47.594;19.116;2023-07-31T01:20:42;99910;;;18.98;100.00
69027;BME280;56080;47.594;19.116;2023-07-31T01:30:44;99917;;;19.09;100.00
69027;BME280;56080;47.594;19.116;2023-07-31T01:40:45;99931;;;19.12;100.00
69027;BME280;56080;47.594;19.116;2023-07-31T01:50:46;99928;;;19.17;100.00
69027;BME280;56080;47.594;19.116;2023-07-31T02:00:48;99911;;;19.02;100.00
69027;BME280;56080;47.594;19.116;2023-07-31T02:10:49;99913;;;18.89;100.00
69027;BME280;56080;47.594;19.116;2023-07-31T02:20:51;99903;;;19.02;100.00
69027;BME280;56080;47.594;19.116;2023-07-31T02:30:53;99911;;;19.13;98.67
69027;BME280;56080;47.594;19.116;2023-07-31T02:40:54;99908;;;19.39;94.48
69027;BME280;56080;47.594;19.116;2023-07-31T02:50:56;99922;;;19.46;94.29
69027;BME280;56080;47.594;19.116;2023-07-31T03:00:58;99927;;;19.05;97.45
69027;BME280;56080;47.594;19.116;2023-07-31T03:11:00;99943;;;18.94;98.37
69027;BME280;56080;47.594;19.116;2023-07-31T03:21:01;99942;;;18.63;100.00
69027;BME280;56080;47.594;19.116;2023-07-31T03:31:02;99942;;;18.62;100.00
69027;BME280;56080;47.594;19.116;2023-07-31T03:51:06;99949;;;18.76;99.19
69027;BME280;56080;47.594;19.116;2023-07-31T04:01:08;99950;;;18.94;98.06
69027;BME280;56080;47.594;19.116;2023-07-31T04:11:09;99949;;;19.38;93.51
69027;BME280;56080;47.594;19.116;2023-07-31T04:21:11;99952;;;19.67;91.90
69027;BME280;56080;47.594;19.116;2023-07-31T04:31:12;99961;;;19.95;87.40
69027;BME280;56080;47.594;19.116;2023-07-31T04:41:14;99949;;;20.15;89.04
69027;BME280;56080;47.594;19.116;2023-07-31T04:51:15;99955;;;20.80;86.41
69027;BME280;56080;47.594;19.116;2023-07-31T05:01:17;99959;;;21.02;82.20
69027;BME280;56080;47.594;19.116;2023-07-31T05:11:19;99970;;;21.28;78.46
69027;BME280;56080;47.594;19.116;2023-07-31T05:31:24;99971;;;21.55;73.88
69027;BME280;56080;47.594;19.116;2023-07-31T05:41:25;99981;;;24.19;59.93
69027;BME280;56080;47.594;19.116;2023-07-31T05:51:28;99981;;;27.15;46.36
69027;BME280;56080;47.594;19.116;2023-07-31T06:01:31;99977;;;26.17;45.82
69027;BME280;56080;47.594;19.116;2023-07-31T06:11:33;99987;;;26.46;45.03
69027;BME280;56080;47.594;19.116;2023-07-31T06:21:37;100001;;;27.27;43.43
69027;BME280;56080;47.594;19.116;2023-07-31T06:31:40;100012;;;25.34;48.57
69027;BME280;56080;47.594;19.116;2023-07-31T06:41:43;99998;;;23.88;52.68
69027;BME280;56080;47.594;19.116;2023-07-31T06:51:44;99998;;;27.08;46.56
69027;BME280;56080;47.594;19.116;2023-07-31T07:01:47;100002;;;24.31;51.46
69027;BME280;56080;47.594;19.116;2023-07-31T07:11:49;99993;;;22.98;57.14
69027;BME280;56080;47.594;19.116;2023-07-31T07:21:51;100009;;;23.30;57.48
69027;BME280;56080;47.594;19.116;2023-07-31T07:31:54;100007;;;24.99;47.95
69027;BME280;56080;47.594;19.116;2023-07-31T07:41:56;100012;;;25.82;44.11
69027;BME280;56080;47.594;19.116;2023-07-31T07:51:59;100000;;;25.25;44.63
69027;BME280;56080;47.594;19.116;2023-07-31T08:02:02;100005;;;26.77;41.08
69027;BME280;56080;47.594;19.116;2023-07-31T08:12:04;99996;;;29.55;35.06
69027;BME280;56080;47.594;19.116;2023-07-31T08:22:07;100003;;;26.63;38.30
69027;BME280;56080;47.594;19.116;2023-07-31T08:32:09;100003;;;25.66;40.58
69027;BME280;56080;47.594;19.116;2023-07-31T08:42:12;99992;;;26.78;39.38
69027;BME280;56080;47.594;19.116;2023-07-31T08:52:14;99991;;;25.75;40.97
69027;BME280;56080;47.594;19.116;2023-07-31T09:02:16;99991;;;26.33;41.42
69027;BME280;56080;47.594;19.116;2023-07-31T09:12:19;99992;;;26.21;41.74
69027;BME280;56080;47.594;19.116;2023-07-31T09:22:36;99982;;;26.22;40.32
69027;BME280;56080;47.594;19.116;2023-07-31T09:32:23;99975;;;26.15;40.11
69027;BME280;56080;47.594;19.116;2023-07-31T09:42:26;99979;;;25.92;40.39
69027;BME280;56080;47.594;19.116;2023-07-31T09:52:27;99959;;;25.33;41.12
69027;BME280;56080;47.594;19.116;2023-07-31T10:02:29;99957;;;25.35;41.64
69027;BME280;56080;47.594;19.116;2023-07-31T10:12:33;99973;;;24.88;42.23
69027;BME280;56080;47.594;19.116;2023-07-31T10:22:34;99966;;;24.99;41.28
69027;BME280;56080;47.594;19.116;2023-07-31T10:32:37;99963;;;25.11;43.77
69027;BME280;56080;47.594;19.116;2023-07-31T10:42:55;99956;;;25.05;44.54
69027;BME280;56080;47.594;19.116;2023-07-31T10:52:40;99947;;;24.99;44.47
69027;BME280;56080;47.594;19.116;2023-07-31T11:02:42;99947;;;25.41;44.92
69027;BME280;56080;47.594;19.116;2023-07-31T11:12:44;99951;;;24.87;44.68
